Time;durP1;ratioP1;P1;durP2;ratioP2;P2;SDS_P1;SDS_P2;PMS_P1;PMS_P2;Temp;Humidity;BMP_temperature;BMP_pressure;BME280_temperature;BME280_humidity;BME280_pressure;Samples;Min_cycle;Max_cycle;Signal;HPM_P1;HPM_P2
2022/02/14 00:02:22;;;;;;;1.30;0.60;;;;;;;;;;10396461;28;20061;-72
2022/02/14 00:07:25;;;;;;;;;;;;;;;;;;10392714;28;20406;-71
2022/02/14 00:12:27;;;;;;;2.40;0.80;;;;;;;;;;10395288;28;20277;-72
2022/02/14 00:17:32;;;;;;;2.87;1.20;;;;;;;;;;10419018;28;20037;-73
2022/02/14 00:22:35;;;;;;;1.90;0.97;;;;;;;;;;10400103;28;20406;-72
2022/02/14 00:27:39;;;;;;;6.00;1.80;;;;;;;;;;10401604;28;20044;-73
2022/02/14 00:32:43;;;;;;;3.03;1.53;;;;;;;;;;10397092;28;20493;-73
2022/02/14 00:37:48;;;;;;;1.53;0.80;;;;;;;;;;10395098;28;20091;-73
2022/02/14 00:42:52;;;;;;;1.87;0.50;;;;;;;;;;10400873;28;20409;-73
2022/02/14 00:47:58;;;;;;;2.30;1.03;;;;;;;;;;10402797;28;20489;-73
2022/02/14 00:53:00;;;;;;;3.63;1.08;;;;;;;;;;10398745;28;20038;-73
2022/02/14 00:58:03;;;;;;;2.47;1.00;;;;;;;;;;10400932;28;20034;-73
2022/02/14 01:03:07;;;;;;;1.27;0.77;;;;;;;;;;10395447;28;20053;-72
2022/02/14 01:08:10;;;;;;;2.22;1.00;;;;;;;;;;10400019;28;20405;-72
2022/02/14 01:13:13;;;;;;;2.13;1.30;;;;;;;;;;10395326;28;20078;-71
2022/02/14 01:18:18;;;;;;;3.40;1.57;;;;;;;;;;10395669;28;20088;-73
2022/02/14 01:23:21;;;;;;;1.43;1.20;;;;;;;;;;10401891;28;20358;-73
2022/02/14 01:28:24;;;;;;;0.30;0.30;;;;;;;;;;10400432;28;20420;-70
2022/02/14 01:33:28;;;;;;;1.47;0.80;;;;;;;;;;10404127;28;20465;-73
2022/02/14 01:38:34;;;;;;;3.70;0.80;;;;;;;;;;10421313;23;20044;31
2022/02/14 01:43:37;;;;;;;1.33;0.67;;;;;;;;;;10329877;28;20046;-67
2022/02/14 01:48:41;;;;;;;1.23;0.73;;;;;;;;;;10336954;28;20105;-66
2022/02/14 01:53:45;;;;;;;1.47;0.83;;;;;;;;;;10294574;28;20473;-66
2022/02/14 01:58:49;;;;;;;1.30;0.70;;;;;;;;;;10286036;28;20041;-67
2022/02/14 02:03:54;;;;;;;1.35;0.60;;;;;;;;;;10291863;28;20465;-67
2022/02/14 02:08:56;;;;;;;;;;;;;;;;;;10295113;28;20038;-66
2022/02/14 02:14:00;;;;;;;2.33;0.60;;;;;;;;;;10314136;28;20370;-67
2022/02/14 02:19:06;;;;;;;1.38;0.40;;;;;;;;;;10294054;28;20093;-66
2022/02/14 02:24:17;;;;;;;0.63;0.23;;;;;;;;;;10298599;28;20042;-67
2022/02/14 02:29:28;;;;;;;0.60;0.40;;;;;;;;;;10308603;28;20043;-66
2022/02/14 02:34:31;;;;;;;1.17;0.67;;;;;;;;;;10295405;28;20149;-66
2022/02/14 02:39:35;;;;;;;3.70;0.83;;;;;;;;;;10295757;28;20448;-66
2022/02/14 02:44:39;;;;;;;0.60;0.40;;;;;;;;;;10299302;28;20456;-66
2022/02/14 02:49:43;;;;;;;1.43;0.50;;;;;;;;;;10304143;28;20052;-66
2022/02/14 02:54:46;;;;;;;3.60;0.90;;;;;;;;;;10297022;28;20105;-67
2022/02/14 02:59:50;;;;;;;1.67;0.50;;;;;;;;;;10311139;28;20105;-66
2022/02/14 03:04:53;;;;;;;0.47;0.45;;;;;;;;;;10316831;28;20145;-66
2022/02/14 03:09:57;;;;;;;1.97;0.93;;;;;;;;;;10281986;28;20040;-66
2022/02/14 03:15:01;;;;;;;0.73;0.40;;;;;;;;;;10293381;28;20046;-65
2022/02/14 03:20:04;;;;;;;1.58;0.73;;;;;;;;;;10299341;28;20049;-66
2022/02/14 03:25:08;;;;;;;0.43;0.40;;;;;;;;;;10308383;28;20070;-67
2022/02/14 03:30:12;;;;;;;0.30;0.30;;;;;;;;;;10292495;28;20046;-67
2022/02/14 03:35:15;;;;;;;1.13;0.63;;;;;;;;;;10293853;28;20054;-65
2022/02/14 03:40:18;;;;;;;0.60;0.33;;;;;;;;;;10285099;28;20098;-66
2022/02/14 03:45:22;;;;;;;1.43;0.90;;;;;;;;;;10308334;28;20063;-66
2022/02/14 03:50:25;;;;;;;0.33;0.33;;;;;;;;;;10291553;28;20038;-66
2022/02/14 03:55:28;;;;;;;0.67;0.30;;;;;;;;;;10290273;28;20199;-66
2022/02/14 04:00:33;;;;;;;0.73;0.40;;;;;;;;;;10293290;28;20053;-66
2022/02/14 04:05:37;;;;;;;1.20;0.87;;;;;;;;;;10299374;28;20035;-66
2022/02/14 04:10:39;;;;;;;2.50;1.07;;;;;;;;;;10291342;28;20097;-66
2022/02/14 04:15:44;;;;;;;0.30;0.30;;;;;;;;;;10287034;28;20328;-66
2022/02/14 04:20:46;;;;;;;;;;;;;;;;;;10291703;28;20073;-66
2022/02/14 04:25:49;;;;;;;3.63;0.80;;;;;;;;;;10291535;28;20000;-66
2022/02/14 04:30:53;;;;;;;1.80;0.70;;;;;;;;;;10290210;28;20049;-67
2022/02/14 04:35:56;;;;;;;1.67;0.68;;;;;;;;;;10291834;28;20039;-67
2022/02/14 04:40:59;;;;;;;0.73;0.50;;;;;;;;;;10289276;28;20046;-66
2022/02/14 04:46:03;;;;;;;0.80;0.63;;;;;;;;;;10293975;28;20046;-66
2022/02/14 04:51:06;;;;;;;0.20;0.20;;;;;;;;;;10296555;28;20041;-67
2022/02/14 04:56:09;;;;;;;1.70;0.83;;;;;;;;;;10295139;28;20638;-66
2022/02/14 05:01:13;;;;;;;;;;;;;;;;;;10281210;28;20132;-67
2022/02/14 05:06:18;;;;;;;0.30;0.20;;;;;;;;;;10291202;28;19926;-67
2022/02/14 05:11:22;;;;;;;0.47;0.47;;;;;;;;;;10282489;28;20101;-66
2022/02/14 05:16:25;;;;;;;0.93;0.60;;;;;;;;;;10283208;28;20051;-67
2022/02/14 05:21:29;;;;;;;2.30;0.53;;;;;;;;;;10288276;28;20525;-66
2022/02/14 05:26:32;;;;;;;;;;;;;;;;;;10293456;28;20039;-66
2022/02/14 05:31:35;;;;;;;1.70;0.80;;;;;;;;;;10288619;28;20031;-66
2022/02/14 05:36:41;;;;;;;0.97;0.60;;;;;;;;;;10286739;28;20031;-67
2022/02/14 05:41:47;;;;;;;3.00;1.00;;;;;;;;;;10290152;28;20049;-65
2022/02/14 05:46:50;;;;;;;0.77;0.43;;;;;;;;;;10300015;28;20046;-66
2022/02/14 05:51:54;;;;;;;2.90;0.80;;;;;;;;;;10290866;28;20085;-66
2022/02/14 05:56:58;;;;;;;0.80;0.67;;;;;;;;;;10299492;28;20550;-66
2022/02/14 06:02:02;;;;;;;0.70;0.38;;;;;;;;;;10288297;28;20129;-65
2022/02/14 06:07:06;;;;;;;0.70;0.40;;;;;;;;;;10280044;28;20042;-65
2022/02/14 06:12:09;;;;;;;4.30;0.40;;;;;;;;;;10297966;28;20046;-66
2022/02/14 06:17:12;;;;;;;0.90;0.63;;;;;;;;;;10309345;28;20038;-66
2022/02/14 06:22:17;;;;;;;0.20;0.20;;;;;;;;;;10314854;28;20046;-65
2022/02/14 06:27:20;;;;;;;0.20;0.20;;;;;;;;;;10312039;28;20070;-65
2022/02/14 06:32:25;;;;;;;0.17;0.17;;;;;;;;;;10292491;28;20125;-67
2022/02/14 06:37:29;;;;;;;1.37;0.67;;;;;;;;;;10302224;28;20035;-67
2022/02/14 06:42:32;;;;;;;0.83;0.50;;;;;;;;;;10299915;28;20302;-67
2022/02/14 06:47:35;;;;;;;1.33;0.87;;;;;;;;;;10287179;28;20033;-67
2022/02/14 06:52:40;;;;;;;1.20;0.63;;;;;;;;;;10297760;28;20086;-66
2022/02/14 06:57:44;;;;;;;2.60;1.20;;;;;;;;;;10287947;28;20054;-66
2022/02/14 07:02:46;;;;;;;4.78;1.20;;;;;;;;;;10290882;28;20551;-66
2022/02/14 07:07:51;;;;;;;2.67;1.02;;;;;;;;;;10283600;28;20042;-65
2022/02/14 07:12:56;;;;;;;3.58;1.45;;;;;;;;;;10291122;28;20046;-66
2022/02/14 07:18:01;;;;;;;4.85;1.40;;;;;;;;;;10296794;28;20031;-67
2022/02/14 07:23:06;;;;;;;8.15;1.80;;;;;;;;;;10294454;28;20085;-68
2022/02/14 07:28:08;;;;;;;5.93;1.33;;;;;;;;;;10284052;28;20038;-68
2022/02/14 07:33:18;;;;;;;2.80;1.35;;;;;;;;;;10281729;28;20038;-68
2022/02/14 07:38:22;;;;;;;4.72;1.67;;;;;;;;;;10288548;28;20070;-67
2022/02/14 07:43:26;;;;;;;5.80;1.80;;;;;;;;;;10284915;28;20097;-68
2022/02/14 07:48:29;;;;;;;;;;;;;;;;;;10276118;28;20057;-67
2022/02/14 07:53:33;;;;;;;6.10;1.90;;;;;;;;;;10285682;28;20274;-68
2022/02/14 07:58:36;;;;;;;4.40;1.83;;;;;;;;;;10297191;28;20562;-67
2022/02/14 08:03:38;;;;;;;6.30;1.60;;;;;;;;;;10289011;28;20093;-68
2022/02/14 08:09:03;;;;;;;4.90;1.77;;;;;;;;;;10279464;28;20035;-67
2022/02/14 08:14:06;;;;;;;4.18;1.58;;;;;;;;;;10326611;23;20041;-68
2022/02/14 08:19:09;;;;;;;2.33;1.40;;;;;;;;;;10408775;28;20037;-70
2022/02/14 08:24:13;;;;;;;8.27;1.85;;;;;;;;;;10427827;28;20069;-68
2022/02/14 08:29:17;;;;;;;3.70;1.50;;;;;;;;;;10433674;28;20129;-70
2022/02/14 08:34:20;;;;;;;2.35;1.67;;;;;;;;;;10416803;28;20053;-71
2022/02/14 08:39:24;;;;;;;3.10;1.42;;;;;;;;;;10436186;28;20037;-71
2022/02/14 08:44:27;;;;;;;0.65;0.52;;;;;;;;;;10419781;28;20099;-71
2022/02/14 08:49:34;;;;;;;6.05;1.27;;;;;;;;;;10429216;28;20072;-68
2022/02/14 08:54:39;;;;;;;5.70;2.28;;;;;;;;;;10407805;28;20041;-70
2022/02/14 08:59:42;;;;;;;4.38;1.23;;;;;;;;;;10437253;28;20490;-70
2022/02/14 09:04:44;;;;;;;6.22;1.70;;;;;;;;;;10419850;28;20041;-71
2022/02/14 09:09:49;;;;;;;3.65;1.40;;;;;;;;;;10410280;28;20485;-70
2022/02/14 09:14:52;;;;;;;7.60;1.60;;;;;;;;;;10428748;28;20528;-71
2022/02/14 09:19:55;;;;;;;3.83;1.83;;;;;;;;;;10436337;28;20040;-71
2022/02/14 09:24:59;;;;;;;3.28;1.67;;;;;;;;;;10439462;28;20049;-71
2022/02/14 09:30:05;;;;;;;4.50;2.03;;;;;;;;;;10423654;28;20040;-71
2022/02/14 09:35:09;;;;;;;3.22;1.90;;;;;;;;;;10415264;28;20053;-71
2022/02/14 09:40:13;;;;;;;7.97;2.33;;;;;;;;;;10428136;28;20041;-69
2022/02/14 09:45:37;;;;;;;4.47;1.75;;;;;;;;;;10417172;28;20132;-71
2022/02/14 09:50:41;;;;;;;9.23;2.45;;;;;;;;;;10418918;28;20492;-71
2022/02/14 09:55:47;;;;;;;7.60;2.17;;;;;;;;;;10440709;28;20339;-70
2022/02/14 10:00:50;;;;;;;3.65;1.73;;;;;;;;;;10438067;28;20076;-70
2022/02/14 10:05:54;;;;;;;3.53;1.77;;;;;;;;;;10449246;28;20049;-69
2022/02/14 10:11:12;;;;;;;4.43;1.58;;;;;;;;;;10425855;28;20064;-69
2022/02/14 10:16:15;;;;;;;1.58;1.00;;;;;;;;;;10414240;28;20064;-71
2022/02/14 10:21:20;;;;;;;3.78;1.50;;;;;;;;;;10420398;28;20068;-70
2022/02/14 10:26:27;;;;;;;3.33;1.20;;;;;;;;;;10435796;28;20036;-71
2022/02/14 10:31:39;;;;;;;1.55;0.93;;;;;;;;;;10426033;28;20536;-70
2022/02/14 10:36:43;;;;;;;3.90;1.30;;;;;;;;;;10439306;28;20037;-67
2022/02/14 10:41:49;;;;;;;5.32;2.22;;;;;;;;;;10442344;28;20047;-70
2022/02/14 10:46:52;;;;;;;5.68;2.08;;;;;;;;;;10441205;28;20403;-70
2022/02/14 10:52:01;;;;;;;3.42;1.80;;;;;;;;;;10420847;28;20094;-72
2022/02/14 10:57:06;;;;;;;53.63;7.05;;;;;;;;;;10429741;28;20045;-70
2022/02/14 11:02:09;;;;;;;49.20;7.22;;;;;;;;;;10417014;28;20461;-68
2022/02/14 11:07:11;;;;;;;35.30;5.10;;;;;;;;;;10436657;28;20759;-70
2022/02/14 11:12:18;;;;;;;25.02;4.30;;;;;;;;;;10433910;28;20033;-70
2022/02/14 11:17:23;;;;;;;5.50;2.10;;;;;;;;;;10415096;28;20033;-71
2022/02/14 11:22:26;;;;;;;8.18;2.80;;;;;;;;;;10416676;28;20044;-70
2022/02/14 11:27:32;;;;;;;5.93;2.13;;;;;;;;;;10421868;28;20501;-73
2022/02/14 11:32:39;;;;;;;6.40;2.33;;;;;;;;;;10421827;28;20045;-70
2022/02/14 11:37:47;;;;;;;4.93;2.42;;;;;;;;;;10441019;28;20036;-70
2022/02/14 11:43:10;;;;;;;3.30;2.20;;;;;;;;;;10420481;28;20098;-70
2022/02/14 11:48:24;;;;;;;7.22;3.30;;;;;;;;;;10428265;28;20074;-69
2022/02/14 11:53:31;;;;;;;5.88;2.50;;;;;;;;;;10422647;28;20136;-70
2022/02/14 11:58:52;;;;;;;5.20;1.90;;;;;;;;;;10431349;28;20045;-71
2022/02/14 12:04:16;;;;;;;8.02;2.70;;;;;;;;;;10441383;28;20147;-70
2022/02/14 12:09:22;;;;;;;7.68;2.58;;;;;;;;;;10436869;28;20512;-71
2022/02/14 12:14:25;;;;;;;4.22;2.22;;;;;;;;;;10431317;28;20037;-70
2022/02/14 12:25:13;;;;;;;6.88;2.42;;;;;;;;;;10428361;28;20048;-71
2022/02/14 12:30:17;;;;;;;50.88;6.63;;;;;;;;;;10431254;28;20446;-70
2022/02/14 12:35:28;;;;;;;51.15;6.25;;;;;;;;;;10410469;28;20045;-72
2022/02/14 12:40:46;;;;;;;18.15;3.17;;;;;;;;;;10435001;28;20033;-70
2022/02/14 12:45:49;;;;;;;4.07;2.15;;;;;;;;;;10419760;28;20299;-73
2022/02/14 12:50:54;;;;;;;407.35;39.53;;;;;;;;;;10445019;28;20497;-71
2022/02/14 13:01:26;;;;;;;315.95;26.83;;;;;;;;;;10509698;27;20409;-69
2022/02/14 13:06:37;;;;;;;119.55;13.63;;;;;;;;;;10465110;28;20029;-71
2022/02/14 13:11:43;;;;;;;33.08;4.53;;;;;;;;;;10461800;28;20033;-69
2022/02/14 13:16:51;;;;;;;23.33;3.92;;;;;;;;;;10456777;28;20140;-70
2022/02/14 13:21:54;;;;;;;4.22;2.33;;;;;;;;;;10462873;28;20033;-70
2022/02/14 13:27:04;;;;;;;62.00;10.23;;;;;;;;;;10463315;28;20094;-72
2022/02/14 13:32:10;;;;;;;50.90;6.60;;;;;;;;;;10466114;28;20061;-71
2022/02/14 13:37:12;;;;;;;296.52;30.27;;;;;;;;;;10463930;28;20037;-72
2022/02/14 13:42:19;;;;;;;128.48;12.05;;;;;;;;;;10456329;28;20094;-70
2022/02/14 13:47:23;;;;;;;160.00;11.82;;;;;;;;;;10450472;28;20067;-70
2022/02/14 13:52:27;;;;;;;13.60;2.30;;;;;;;;;;10454572;28;20041;-71
2022/02/14 13:57:30;;;;;;;32.08;4.68;;;;;;;;;;10463327;28;20100;-70
2022/02/14 14:02:34;;;;;;;7.13;2.20;;;;;;;;;;10458631;28;20128;-71
2022/02/14 14:07:52;;;;;;;10.80;3.92;;;;;;;;;;10463964;28;20033;-72
2022/02/14 14:12:55;;;;;;;4.60;2.43;;;;;;;;;;10435631;28;20061;-69
2022/02/14 14:18:00;;;;;;;18.42;5.05;;;;;;;;;;10385078;22;20451;-75
2022/02/14 14:23:04;;;;;;;25.10;4.20;;;;;;;;;;10363686;28;20049;-74
2022/02/14 14:28:07;;;;;;;72.60;6.03;;;;;;;;;;10356991;28;20342;-73
2022/02/14 14:33:16;;;;;;;15.15;2.78;;;;;;;;;;10364638;28;20037;-74
2022/02/14 14:38:19;;;;;;;13.88;3.30;;;;;;;;;;10359591;28;20042;-75
2022/02/14 14:43:22;;;;;;;12.82;3.25;;;;;;;;;;10360653;28;20442;-71
2022/02/14 14:48:26;;;;;;;10.37;3.13;;;;;;;;;;10352932;28;20267;-71
2022/02/14 14:53:29;;;;;;;27.42;3.85;;;;;;;;;;10361147;28;20092;-73
2022/02/14 14:58:32;;;;;;;13.13;3.40;;;;;;;;;;10353720;28;20680;-74
2022/02/14 15:03:38;;;;;;;15.87;3.63;;;;;;;;;;10353622;28;20037;-73
2022/02/14 15:08:41;;;;;;;8.88;3.10;;;;;;;;;;10353458;28;20502;-74
2022/02/14 15:13:44;;;;;;;15.37;4.33;;;;;;;;;;10353682;28;20045;-75
2022/02/14 15:18:49;;;;;;;11.97;3.90;;;;;;;;;;10376366;28;20135;-75
2022/02/14 15:23:52;;;;;;;13.25;3.65;;;;;;;;;;10353267;28;20299;-74
2022/02/14 15:28:55;;;;;;;32.30;6.20;;;;;;;;;;10359229;28;20568;-75
2022/02/14 15:33:59;;;;;;;40.63;5.23;;;;;;;;;;10369768;28;20046;-74
2022/02/14 15:39:02;;;;;;;19.13;4.25;;;;;;;;;;10359263;28;20409;-75
2022/02/14 15:44:06;;;;;;;14.00;3.80;;;;;;;;;;10360068;28;20042;-74
2022/02/14 15:49:10;;;;;;;11.90;3.78;;;;;;;;;;10358393;28;20478;-73
2022/02/14 15:54:14;;;;;;;11.88;4.68;;;;;;;;;;10360707;28;20049;-73
2022/02/14 15:59:17;;;;;;;9.38;3.33;;;;;;;;;;10358352;28;20085;-74
2022/02/14 16:04:21;;;;;;;11.63;3.85;;;;;;;;;;10350671;28;20046;-74
2022/02/14 16:09:24;;;;;;;11.13;4.00;;;;;;;;;;10375445;28;20042;-73
2022/02/14 16:14:27;;;;;;;13.35;3.55;;;;;;;;;;10356703;28;20044;-74
2022/02/14 16:19:33;;;;;;;16.15;4.90;;;;;;;;;;10353033;28;20219;-73
2022/02/14 16:24:36;;;;;;;11.80;4.20;;;;;;;;;;10370249;28;20033;-73
2022/02/14 16:29:39;;;;;;;9.55;3.60;;;;;;;;;;10351872;28;20050;-75
2022/02/14 16:34:43;;;;;;;15.75;4.32;;;;;;;;;;10354405;28;20089;-74
2022/02/14 16:39:46;;;;;;;20.27;4.75;;;;;;;;;;10370518;28;20106;-75
2022/02/14 16:44:49;;;;;;;22.75;8.55;;;;;;;;;;10354362;28;20461;-75
2022/02/14 16:49:54;;;;;;;13.95;4.60;;;;;;;;;;10354149;28;20045;-74
2022/02/14 16:54:58;;;;;;;18.15;3.95;;;;;;;;;;10351636;28;20530;-76
2022/02/14 17:00:01;;;;;;;10.48;4.07;;;;;;;;;;10356914;28;20046;-75
2022/02/14 17:05:06;;;;;;;11.65;4.43;;;;;;;;;;10363931;28;20461;-75
2022/02/14 17:10:10;;;;;;;6.03;3.17;;;;;;;;;;10372607;28;20050;-75
2022/02/14 17:15:13;;;;;;;11.18;4.30;;;;;;;;;;10351557;28;20042;-75
2022/02/14 17:20:18;;;;;;;8.65;3.70;;;;;;;;;;10346421;28;20045;-76
2022/02/14 17:25:21;;;;;;;8.77;4.07;;;;;;;;;;10354099;28;20557;-74
2022/02/14 17:30:24;;;;;;;12.38;4.30;;;;;;;;;;10355163;28;20062;-71
2022/02/14 17:35:28;;;;;;;15.85;4.45;;;;;;;;;;10349769;28;20164;-70
2022/02/14 17:40:31;;;;;;;14.63;4.20;;;;;;;;;;10349379;28;20080;-75
2022/02/14 17:45:34;;;;;;;12.63;4.70;;;;;;;;;;10356715;28;20058;-75
2022/02/14 17:50:38;;;;;;;9.70;4.18;;;;;;;;;;10361512;28;20528;-74
2022/02/14 17:55:41;;;;;;;12.07;5.13;;;;;;;;;;10364206;28;20473;-76
2022/02/14 18:00:45;;;;;;;16.08;4.50;;;;;;;;;;10358787;28;20073;-76
2022/02/14 18:05:50;;;;;;;14.02;4.43;;;;;;;;;;10362513;28;20048;-74
2022/02/14 18:10:53;;;;;;;11.00;4.97;;;;;;;;;;10366968;28;20108;-74
2022/02/14 18:15:56;;;;;;;14.25;5.20;;;;;;;;;;10361270;28;20053;-73
2022/02/14 18:21:00;;;;;;;14.07;4.65;;;;;;;;;;10360662;28;20133;-74
2022/02/14 18:26:03;;;;;;;14.65;4.65;;;;;;;;;;10355452;28;20773;-75
2022/02/14 18:31:06;;;;;;;11.45;4.90;;;;;;;;;;10358256;28;20038;-74
2022/02/14 18:36:10;;;;;;;10.38;4.30;;;;;;;;;;10354756;28;20112;-74
2022/02/14 18:41:13;;;;;;;7.63;4.43;;;;;;;;;;10356287;28;20038;-75
2022/02/14 18:46:22;;;;;;;13.25;5.10;;;;;;;;;;10346795;28;20212;-74
2022/02/14 18:51:26;;;;;;;11.75;5.55;;;;;;;;;;10374125;28;20125;-74
2022/02/14 18:56:29;;;;;;;;;;;;;;;;;;10353248;28;20053;-75
2022/02/14 19:01:32;;;;;;;16.80;6.05;;;;;;;;;;10354227;28;19987;-75
2022/02/14 19:06:56;;;;;;;16.30;5.55;;;;;;;;;;10346927;28;20041;-74
2022/02/14 19:11:59;;;;;;;;;;;;;;;;;;10354899;28;20133;-75
2022/02/14 19:17:22;;;;;;;7.45;3.03;;;;;;;;;;10350520;28;20282;-74
2022/02/14 19:22:27;;;;;;;12.15;4.07;;;;;;;;;;10371066;28;20111;-76
2022/02/14 19:27:30;;;;;;;11.18;5.13;;;;;;;;;;10358377;28;20068;-75
2022/02/14 19:32:33;;;;;;;9.88;3.80;;;;;;;;;;10360396;28;20041;-75
2022/02/14 19:37:37;;;;;;;9.32;4.18;;;;;;;;;;10351397;28;20062;-73
2022/02/14 19:42:41;;;;;;;7.57;3.03;;;;;;;;;;10354424;28;20614;-75
2022/02/14 19:47:44;;;;;;;8.02;3.35;;;;;;;;;;10350895;28;20046;-75
2022/02/14 19:52:49;;;;;;;9.80;3.92;;;;;;;;;;10443366;28;20370;-75
2022/02/14 19:57:54;;;;;;;7.68;3.97;;;;;;;;;;10440649;28;20049;-74
2022/02/14 20:02:56;;;;;;;9.10;2.80;;;;;;;;;;10438837;28;20531;-76
2022/02/14 20:08:01;;;;;;;6.80;2.87;;;;;;;;;;10418065;28;20110;-74
2022/02/14 20:13:04;;;;;;;8.35;3.60;;;;;;;;;;10430702;28;20486;-75
2022/02/14 20:18:07;;;;;;;3.88;2.05;;;;;;;;;;10428429;28;20212;-74
2022/02/14 20:23:14;;;;;;;8.18;3.03;;;;;;;;;;10440495;28;20041;-74
2022/02/14 20:28:17;;;;;;;12.25;3.25;;;;;;;;;;10427992;28;20469;-73
2022/02/14 20:33:21;;;;;;;8.70;3.57;;;;;;;;;;10431695;28;20029;-74
2022/02/14 20:38:26;;;;;;;11.43;3.27;;;;;;;;;;10434796;28;20041;-75
2022/02/14 20:43:29;;;;;;;8.75;3.53;;;;;;;;;;10438302;23;20390;-73
2022/02/14 20:48:32;;;;;;;6.70;2.83;;;;;;;;;;10466703;28;20094;-74
2022/02/14 20:53:36;;;;;;;4.93;1.85;;;;;;;;;;10460628;28;20097;-73
2022/02/14 20:58:38;;;;;;;;;;;;;;;;;;10468136;28;20040;-73
2022/02/14 21:03:43;;;;;;;3.33;1.97;;;;;;;;;;10499420;28;20153;-70
2022/02/14 21:08:48;;;;;;;8.00;2.37;;;;;;;;;;10474251;28;20059;-72
2022/02/14 21:13:53;;;;;;;3.03;1.83;;;;;;;;;;10501837;28;20558;-71
2022/02/14 21:18:57;;;;;;;5.90;2.60;;;;;;;;;;10466395;28;20059;-73
2022/02/14 21:24:02;;;;;;;5.90;1.45;;;;;;;;;;10478067;28;20197;-71
2022/02/14 21:29:25;;;;;;;2.45;1.17;;;;;;;;;;10496284;28;20148;-71
2022/02/14 21:34:30;;;;;;;5.47;2.10;;;;;;;;;;10509151;28;20147;-72
2022/02/14 21:39:35;;;;;;;2.75;1.25;;;;;;;;;;10504717;28;20037;-73
2022/02/14 21:44:39;;;;;;;4.82;2.38;;;;;;;;;;10486753;28;20044;-74
2022/02/14 21:49:42;;;;;;;1.92;1.17;;;;;;;;;;10489869;28;20082;-71
2022/02/14 21:54:47;;;;;;;6.00;3.33;;;;;;;;;;10491097;28;20043;-72
2022/02/14 21:59:49;;;;;;;6.00;2.30;;;;;;;;;;10493912;28;20082;-72
2022/02/14 22:10:17;;;;;;;8.32;3.42;;;;;;;;;;10494374;28;20121;-72
2022/02/14 22:15:20;;;;;;;8.07;2.63;;;;;;;;;;10479532;28;20122;-73
2022/02/14 22:20:27;;;;;;;6.20;2.08;;;;;;;;;;10474525;28;20042;-73
2022/02/14 22:25:31;;;;;;;8.07;2.92;;;;;;;;;;10470147;28;20048;-73
2022/02/14 22:30:34;;;;;;;4.15;2.05;;;;;;;;;;10500375;28;20029;-72
2022/02/14 22:35:38;;;;;;;5.50;2.08;;;;;;;;;;10479941;28;20044;-72
2022/02/14 22:40:42;;;;;;;4.28;2.30;;;;;;;;;;10473023;28;20060;-71
2022/02/14 22:45:45;;;;;;;1.60;1.02;;;;;;;;;;10497603;28;20071;-72
2022/02/14 22:50:48;;;;;;;4.30;1.67;;;;;;;;;;10475581;28;20060;-72
2022/02/14 22:55:54;;;;;;;4.40;2.22;;;;;;;;;;10482883;28;20075;-72
2022/02/14 23:01:00;;;;;;;6.95;1.75;;;;;;;;;;10493088;28;20035;-72
2022/02/14 23:06:05;;;;;;;9.23;2.60;;;;;;;;;;10490932;28;20044;-74
2022/02/14 23:16:29;;;;;;;6.93;2.60;;;;;;;;;;10492462;28;20035;-72
2022/02/14 23:21:33;;;;;;;7.13;2.08;;;;;;;;;;10470279;28;20127;-73
2022/02/14 23:26:37;;;;;;;7.53;2.70;;;;;;;;;;10469034;28;20080;-72
2022/02/14 23:31:40;;;;;;;9.55;2.78;;;;;;;;;;10489954;28;20039;-71
2022/02/14 23:36:43;;;;;;;2.58;1.23;;;;;;;;;;10501867;28;20558;-71
2022/02/14 23:41:47;;;;;;;2.20;1.23;;;;;;;;;;10480266;28;20045;-72
2022/02/14 23:46:51;;;;;;;6.18;2.65;;;;;;;;;;10484703;28;20097;-72
2022/02/14 23:51:54;;;;;;;5.50;2.40;;;;;;;;;;10499086;28;20044;-71
2022/02/14 23:56:58;;;;;;;4.93;1.88;;;;;;;;;;10480629;28;20081;-73
